Terminal Aerodrome Forecast
Issued by NWS Wilmington, OH

Current Version | Previous Version | Graphics & Text | Print | Product List | Glossary On
Versions: 1 2 3 4 5 6 7 8 9 10 11 12 13 14 15 16 17 18 19 20 21 22
000
FTUS41 KILN 180500
TAFCVG
TAF
KCVG 180538Z 1806/1912 00000KT P6SM BKN250
     FM181400 26006KT P6SM SCT050 BKN150
     FM182100 30007KT P6SM BKN050
     FM190000 36005KT P6SM SCT050
     FM190800 04009KT P6SM SKC=

USA.gov is the U.S. government's official web portal to all federal, state and local government web resources and services.